Share

Marshall, MN

Marshall Municipal-Ryan (KMML) Elev 1181 ft | 44.45 °N, 95.82 °W | Change Station

Current weather conditions updated 21 minutes ago

Clear
Clear
46 °F
Feels Like 44 °F
N
6
Wind Variable Wind from NW
Sunrise 6:30 AM
Sunset 8:14 PM
Moon Waning Gibbous

Today is forecast to be Much Warmer than yesterday. Slight chance of a thunderstorm tonight.

Pressure 30.03 in
Visibility -9999.0 miles
Clouds Clear
Windchill 44 °F
Dew Point 37 °F
Humidity 71%
Rainfall 0.00 in
Snow Depth Not available.
UV 2 out of 16
Pollen 10.50 out of 12
Air Quality Not available.
Flu Activity Sporadic
METAR KMML 201335Z AUTO 32005KT CLR 08/03 A3003 RMK AO1

More Conditions Fewer Conditions

Pressure 30.03 in
Visibility -9999.0 miles
Clouds Clear
Windchill 44 °F
Dew Point 37 °F
Humidity 71%
Rainfall 0.00 in
Snow Depth Not available.
UV 2 out of 16
Pollen 10.50 out of 12
Air Quality Not available.
Flu Activity Sporadic
METAR KMML 201335Z AUTO 32005KT CLR 08/03 A3003 RMK AO1

More Conditions Fewer Conditions

10-Day Weather Forecast

Almanac

Astronomy

Apr. 20, 2014 Rise Set
Actual Time 6:30 AM CDT 8:14 PM CDT
Civil Twilight 6:00 AM CDT 8:45 PM CDT
Nautical Twilight 5:22 AM CDT 9:22 PM CDT
Astronomical Twilight 4:42 AM CDT 10:03 PM CDT
Moon 12:59 AM CDT 10:48 AM CDT
Length of Visible Light 14h 44m
Length of Day
13h 43m
Tomorrow will be 2m 53s longer.
Waning Gibbous, 69% of the Moon is Illuminated
Today
Waning Gibbous
Apr 22
Last Quarter
Apr 29
New
May 6
First Quarter
May 14
Full

Today's Extremes

State Highs State Lows

Community

  • Easter Sunrise
    Easter Sunrise
  • Happy Easter
    Happy Easter
  • EARLY FOGGY MORNING
    EARLY FOGGY MORNING
  • Easter Greetings
    Easter Greetings
  • Sunny day at the coast-Cape Arago Lighthouse
    Sunny day at the coast-Cape Arago Lighthouse

WunderPhotos

Upload Photos

1,703,217 photos uploaded!

Nearby

Snow Depth

Station Depth Elevation
No new snow has been reported.

Coastal Water Temperatures

Place Temperature
No Stations Reporting

Earthquake Activity

City Distance Mag. Time & Date
No recent earthquake activity has been reported nearby.
Minimum magnitude displayed is 2.5.

Nearby Weather Stations

Station Location Temp. Windchill Dew Point Humidity Wind Precip. Elev Updated Type
Samuel Luth. School, Marshall, MN 47.7 °F 48 °F 40 °F 75% WNW  at  2.0 mph 0.00 in / hr 1145 ft 8:56 AM CDT Rapid Fire
Madison Ave N, Minneota, MN 57.0 °F - 42 °F 56% North  at  0.0 mph 0.00 in / hr 1165 ft 8:56 AM CDT Rapid Fire
Rock Lake, Balaton, MN 52.7 °F - 41 °F 65% NNW  at  0.0 mph 0.00 in / hr 1568 ft 8:56 AM CDT Rapid Fire
Tyler, MN 52.3 °F - 42 °F 68% NW  at  2.0 mph 0.00 in / hr 1752 ft 8:50 AM CDT Normal
Ivanhoe, MN 51.7 °F - 40 °F 64% NE  at  0.1 mph 0.00 in / hr 1754 ft 8:56 AM CDT Rapid Fire

Show More Stations Show Fewer Stations

What do you think?

We're not finished. Please let us know what you like, what you don't like, and what you are still missing.